sensor_id;sensor_type;location;lat;lon;timestamp;pressure;altitude;pressure_sealevel;temperature;humidity
20624;BME280;10471;42.736;23.346;2023-04-07T00:02:18;95321.59;;;0.59;100.00
20624;BME280;10471;42.736;23.346;2023-04-07T00:04:44;95330.53;;;0.63;100.00
20624;BME280;10471;42.736;23.346;2023-04-07T00:07:10;95327.50;;;0.66;100.00
20624;BME280;10471;42.736;23.346;2023-04-07T00:09:35;95332.25;;;0.69;100.00
20624;BME280;10471;42.736;23.346;2023-04-07T00:12:01;95322.59;;;0.76;100.00
20624;BME280;10471;42.736;23.346;2023-04-07T00:14:27;95325.03;;;0.71;100.00
20624;BME280;10471;42.736;23.346;2023-04-07T00:16:52;95323.81;;;0.73;100.00
20624;BME280;10471;42.736;23.346;2023-04-07T00:19:18;95325.03;;;0.71;100.00
20624;BME280;10471;42.736;23.346;2023-04-07T00:21:43;95325.50;;;0.68;100.00
20624;BME280;10471;42.736;23.346;2023-04-07T00:24:08;95328.72;;;0.63;100.00
20624;BME280;10471;42.736;23.346;2023-04-07T00:26:34;95322.75;;;0.63;100.00
20624;BME280;10471;42.736;23.346;2023-04-07T00:28:59;95327.84;;;0.69;100.00
20624;BME280;10471;42.736;23.346;2023-04-07T00:31:25;95324.03;;;0.72;100.00
20624;BME280;10471;42.736;23.346;2023-04-07T00:33:50;95324.25;;;0.70;100.00
20624;BME280;10471;42.736;23.346;2023-04-07T00:36:16;95323.50;;;0.70;100.00
20624;BME280;10471;42.736;23.346;2023-04-07T00:38:41;95318.84;;;0.72;100.00
20624;BME280;10471;42.736;23.346;2023-04-07T00:41:07;95319.09;;;0.70;100.00
20624;BME280;10471;42.736;23.346;2023-04-07T00:43:32;95318.31;;;0.70;100.00
20624;BME280;10471;42.736;23.346;2023-04-07T00:45:58;95328.34;;;0.60;100.00
20624;BME280;10471;42.736;23.346;2023-04-07T00:48:23;95319.50;;;0.67;100.00
20624;BME280;10471;42.736;23.346;2023-04-07T00:50:49;95319.56;;;0.61;100.00
20624;BME280;10471;42.736;23.346;2023-04-07T00:53:15;95318.72;;;0.49;100.00
20624;BME280;10471;42.736;23.346;2023-04-07T00:55:40;95313.09;;;0.52;100.00
20624;BME280;10471;42.736;23.346;2023-04-07T00:58:06;95317.84;;;0.55;100.00
20624;BME280;10471;42.736;23.346;2023-04-07T01:00:44;95322.47;;;0.53;100.00
20624;BME280;10471;42.736;23.346;2023-04-07T01:03:18;95318.50;;;0.51;100.00
20624;BME280;10471;42.736;23.346;2023-04-07T01:05:53;95318.50;;;0.51;100.00
20624;BME280;10471;42.736;23.346;2023-04-07T01:08:32;95313.34;;;0.44;100.00
20624;BME280;10471;42.736;23.346;2023-04-07T01:11:07;95312.94;;;0.47;100.00
20624;BME280;10471;42.736;23.346;2023-04-07T01:13:42;95309.78;;;0.45;100.00
20624;BME280;10471;42.736;23.346;2023-04-07T01:16:12;95304.44;;;0.40;100.00
20624;BME280;10471;42.736;23.346;2023-04-07T01:18:42;95314.50;;;0.30;100.00
20624;BME280;10471;42.736;23.346;2023-04-07T01:21:13;95312.06;;;0.35;100.00
20624;BME280;10471;42.736;23.346;2023-04-07T01:26:31;95304.81;;;0.26;100.00
20624;BME280;10471;42.736;23.346;2023-04-07T01:29:27;95304.34;;;0.29;100.00
20624;BME280;10471;42.736;23.346;2023-04-07T01:31:55;95300.88;;;0.17;100.00
20624;BME280;10471;42.736;23.346;2023-04-07T01:34:24;95304.84;;;0.19;100.00
20624;BME280;10471;42.736;23.346;2023-04-07T01:36:51;95297.41;;;0.05;100.00
20624;BME280;10471;42.736;23.346;2023-04-07T01:39:17;95304.97;;;0.06;100.00
20624;BME280;10471;42.736;23.346;2023-04-07T01:41:43;95306.81;;;-0.01;100.00
20624;BME280;10471;42.736;23.346;2023-04-07T01:44:10;95306.59;;;0.01;100.00
20624;BME280;10471;42.736;23.346;2023-04-07T01:46:35;95301.25;;;-0.04;100.00
20624;BME280;10471;42.736;23.346;2023-04-07T01:49:01;95303.91;;;-0.10;100.00
20624;BME280;10471;42.736;23.346;2023-04-07T01:51:29;95306.34;;;-0.15;100.00
20624;BME280;10471;42.736;23.346;2023-04-07T01:53:55;95304.75;;;-0.16;100.00
20624;BME280;10471;42.736;23.346;2023-04-07T01:56:21;95293.84;;;-0.18;100.00
20624;BME280;10471;42.736;23.346;2023-04-07T01:58:46;95291.25;;;-0.18;100.00
20624;BME280;10471;42.736;23.346;2023-04-07T02:01:12;95285.03;;;-0.17;100.00
20624;BME280;10471;42.736;23.346;2023-04-07T02:04:24;95284.63;;;-0.14;100.00
20624;BME280;10471;42.736;23.346;2023-04-07T02:06:31;95287.94;;;-0.07;100.00
20624;BME280;10471;42.736;23.346;2023-04-07T02:09:01;95281.34;;;-0.03;100.00
20624;BME280;10471;42.736;23.346;2023-04-07T02:11:31;95281.50;;;0.01;100.00
20624;BME280;10471;42.736;23.346;2023-04-07T02:13:59;95292.25;;;0.05;100.00
20624;BME280;10471;42.736;23.346;2023-04-07T02:16:28;95287.25;;;0.03;100.00
20624;BME280;10471;42.736;23.346;2023-04-07T02:18:55;95281.81;;;0.11;100.00
20624;BME280;10471;42.736;23.346;2023-04-07T02:21:21;95289.53;;;0.18;100.00
20624;BME280;10471;42.736;23.346;2023-04-07T02:23:47;95290.47;;;0.23;100.00
20624;BME280;10471;42.736;23.346;2023-04-07T02:26:12;95292.56;;;0.33;100.00
20624;BME280;10471;42.736;23.346;2023-04-07T02:28:38;95293.06;;;0.41;100.00
20624;BME280;10471;42.736;23.346;2023-04-07T02:31:03;95294.66;;;0.42;100.00
20624;BME280;10471;42.736;23.346;2023-04-07T02:33:28;95293.59;;;0.50;100.00
20624;BME280;10471;42.736;23.346;2023-04-07T02:35:54;95284.59;;;0.52;100.00
20624;BME280;10471;42.736;23.346;2023-04-07T02:38:19;95288.69;;;0.60;100.00
20624;BME280;10471;42.736;23.346;2023-04-07T02:40:44;95287.03;;;0.65;100.00
20624;BME280;10471;42.736;23.346;2023-04-07T02:43:10;95291.56;;;0.69;100.00
20624;BME280;10471;42.736;23.346;2023-04-07T02:45:36;95289.78;;;0.70;100.00
20624;BME280;10471;42.736;23.346;2023-04-07T02:48:01;95293.53;;;0.74;100.00
20624;BME280;10471;42.736;23.346;2023-04-07T02:50:26;95301.00;;;0.82;100.00
20624;BME280;10471;42.736;23.346;2023-04-07T02:52:53;95288.16;;;0.87;100.00
20624;BME280;10471;42.736;23.346;2023-04-07T02:55:18;95291.34;;;0.89;100.00
20624;BME280;10471;42.736;23.346;2023-04-07T02:57:44;95291.34;;;0.89;100.00
20624;BME280;10471;42.736;23.346;2023-04-07T03:00:09;95296.53;;;0.89;100.00
20624;BME280;10471;42.736;23.346;2023-04-07T03:02:35;95294.38;;;0.86;100.00
20624;BME280;10471;42.736;23.346;2023-04-07T03:05:01;95293.06;;;0.77;100.00
20624;BME280;10471;42.736;23.346;2023-04-07T03:07:28;95303.44;;;0.77;100.00
20624;BME280;10471;42.736;23.346;2023-04-07T03:09:56;95298.63;;;0.80;100.00
20624;BME280;10471;42.736;23.346;2023-04-07T03:12:21;95293.06;;;0.77;100.00
20624;BME280;10471;42.736;23.346;2023-04-07T03:14:46;95296.53;;;0.71;100.00
20624;BME280;10471;42.736;23.346;2023-04-07T03:17:12;95294.38;;;0.68;100.00
20624;BME280;10471;42.736;23.346;2023-04-07T03:19:37;95297.97;;;0.67;100.00
20624;BME280;10471;42.736;23.346;2023-04-07T03:22:03;95292.94;;;0.54;100.00
20624;BME280;10471;42.736;23.346;2023-04-07T03:24:28;95291.63;;;0.45;100.00
20624;BME280;10471;42.736;23.346;2023-04-07T03:26:53;95291.63;;;0.45;100.00
20624;BME280;10471;42.736;23.346;2023-04-07T03:29:19;95287.91;;;0.41;100.00
20624;BME280;10471;42.736;23.346;2023-04-07T03:31:44;95296.66;;;0.40;100.00
20624;BME280;10471;42.736;23.346;2023-04-07T03:34:10;95292.94;;;0.36;100.00
20624;BME280;10471;42.736;23.346;2023-04-07T03:36:36;95296.66;;;0.22;100.00
20624;BME280;10471;42.736;23.346;2023-04-07T03:39:01;95294.06;;;0.22;100.00
20624;BME280;10471;42.736;23.346;2023-04-07T03:41:26;95302.41;;;0.24;100.00
20624;BME280;10471;42.736;23.346;2023-04-07T03:43:52;95301.19;;;0.27;100.00
20624;BME280;10471;42.736;23.346;2023-04-07T03:46:20;95302.28;;;0.37;100.00
20624;BME280;10471;42.736;23.346;2023-04-07T03:48:46;95303.00;;;0.44;100.00
20624;BME280;10471;42.736;23.346;2023-04-07T03:51:12;95305.41;;;0.46;100.00
20624;BME280;10471;42.736;23.346;2023-04-07T03:53:37;95307.31;;;0.50;100.00
20624;BME280;10471;42.736;23.346;2023-04-07T03:56:03;95298.47;;;0.58;100.00
20624;BME280;10471;42.736;23.346;2023-04-07T03:58:28;95307.63;;;0.60;100.00
20624;BME280;10471;42.736;23.346;2023-04-07T04:00:54;95303.59;;;0.64;100.00
20624;BME280;10471;42.736;23.346;2023-04-07T04:03:19;95310.34;;;0.65;100.00
20624;BME280;10471;42.736;23.346;2023-04-07T04:05:45;95312.75;;;0.66;100.00
20624;BME280;10471;42.736;23.346;2023-04-07T04:08:10;95311.09;;;0.72;100.00
20624;BME280;10471;42.736;23.346;2023-04-07T04:10:35;95322.19;;;0.79;100.00
20624;BME280;10471;42.736;23.346;2023-04-07T04:13:01;95323.41;;;0.76;100.00
20624;BME280;10471;42.736;23.346;2023-04-07T04:15:28;95314.13;;;0.69;100.00
20624;BME280;10471;42.736;23.346;2023-04-07T04:17:53;95328.66;;;0.70;100.00
20624;BME280;10471;42.736;23.346;2023-04-07T04:20:19;95323.41;;;0.76;100.00
20624;BME280;10471;42.736;23.346;2023-04-07T04:22:46;95323.31;;;0.83;100.00
20624;BME280;10471;42.736;23.346;2023-04-07T04:25:11;95322.47;;;0.89;100.00
20624;BME280;10471;42.736;23.346;2023-04-07T04:27:37;95328.56;;;0.94;100.00
20624;BME280;10471;42.736;23.346;2023-04-07T04:30:02;95330.97;;;0.96;100.00
20624;BME280;10471;42.736;23.346;2023-04-07T04:32:28;95336.31;;;1.01;100.00
20624;BME280;10471;42.736;23.346;2023-04-07T04:34:53;95333.03;;;1.05;100.00
20624;BME280;10471;42.736;23.346;2023-04-07T04:37:19;95338.59;;;1.09;100.00
20624;BME280;10471;42.736;23.346;2023-04-07T04:39:46;95334.19;;;1.09;100.00
20624;BME280;10471;42.736;23.346;2023-04-07T04:42:11;95342.09;;;1.14;100.00
20624;BME280;10471;42.736;23.346;2023-04-07T04:44:36;95338.88;;;1.19;100.00
20624;BME280;10471;42.736;23.346;2023-04-07T04:47:02;95342.81;;;1.21;100.00
20624;BME280;10471;42.736;23.346;2023-04-07T04:49:27;95339.94;;;1.29;100.00
20624;BME280;10471;42.736;23.346;2023-04-07T04:51:53;95346.81;;;1.35;100.00
20624;BME280;10471;42.736;23.346;2023-04-07T04:54:18;95345.03;;;1.35;100.00
20624;BME280;10471;42.736;23.346;2023-04-07T04:56:44;95346.63;;;1.36;100.00
20624;BME280;10471;42.736;23.346;2023-04-07T04:59:09;95350.94;;;1.42;100.00
20624;BME280;10471;42.736;23.346;2023-04-07T05:01:35;95345.91;;;1.47;100.00
20624;BME280;10471;42.736;23.346;2023-04-07T05:04:00;95348.53;;;1.59;100.00
20624;BME280;10471;42.736;23.346;2023-04-07T05:06:26;95353.06;;;1.63;100.00
20624;BME280;10471;42.736;23.346;2023-04-07T05:08:52;95355.91;;;1.73;100.00
20624;BME280;10471;42.736;23.346;2023-04-07T05:11:17;95357.59;;;1.79;100.00
20624;BME280;10471;42.736;23.346;2023-04-07T05:13:43;95358.09;;;1.88;100.00
20624;BME280;10471;42.736;23.346;2023-04-07T05:16:08;95366.34;;;1.96;100.00
20624;BME280;10471;42.736;23.346;2023-04-07T05:18:33;95368.53;;;1.99;100.00
20624;BME280;10471;42.736;23.346;2023-04-07T05:20:59;95363.00;;;2.07;100.00
20624;BME280;10471;42.736;23.346;2023-04-07T05:23:26;95365.28;;;2.15;100.00
20624;BME280;10471;42.736;23.346;2023-04-07T05:25:51;95362.81;;;2.20;100.00
20624;BME280;10471;42.736;23.346;2023-04-07T05:28:17;95364.94;;;2.23;100.00
20624;BME280;10471;42.736;23.346;2023-04-07T05:30:42;95363.59;;;2.32;100.00
20624;BME280;10471;42.736;23.346;2023-04-07T05:33:07;95360.34;;;2.36;100.00
20624;BME280;10471;42.736;23.346;2023-04-07T05:35:33;95366.22;;;2.43;100.00
20624;BME280;10471;42.736;23.346;2023-04-07T05:37:58;95366.00;;;2.56;100.00
20624;BME280;10471;42.736;23.346;2023-04-07T05:40:24;95370.41;;;2.56;100.00
20624;BME280;10471;42.736;23.346;2023-04-07T05:42:49;95370.19;;;2.68;100.00
20624;BME280;10471;42.736;23.346;2023-04-07T05:45:15;95368.25;;;2.75;100.00
20624;BME280;10471;42.736;23.346;2023-04-07T05:47:40;95368.84;;;2.77;100.00
20624;BME280;10471;42.736;23.346;2023-04-07T05:50:06;95368.47;;;2.85;100.00
20624;BME280;10471;42.736;23.346;2023-04-07T05:52:31;95375.38;;;2.91;100.00
20624;BME280;10471;42.736;23.346;2023-04-07T05:54:57;95368.38;;;3.03;100.00
20624;BME280;10471;42.736;23.346;2023-04-07T05:57:22;95371.47;;;3.17;100.00
20624;BME280;10471;42.736;23.346;2023-04-07T05:59:48;95377.94;;;3.25;100.00
20624;BME280;10471;42.736;23.346;2023-04-07T06:02:13;95368.59;;;3.41;100.00
20624;BME280;10471;42.736;23.346;2023-04-07T06:04:39;95377.19;;;3.53;100.00
20624;BME280;10471;42.736;23.346;2023-04-07T06:07:05;95374.28;;;3.66;100.00
20624;BME280;10471;42.736;23.346;2023-04-07T06:09:31;95375.94;;;3.83;100.00
20624;BME280;10471;42.736;23.346;2023-04-07T06:11:56;95370.28;;;4.02;100.00
20624;BME280;10471;42.736;23.346;2023-04-07T06:14:22;95384.53;;;4.11;100.00
20624;BME280;10471;42.736;23.346;2023-04-07T06:16:47;95365.44;;;4.22;100.00
20624;BME280;10471;42.736;23.346;2023-04-07T06:19:13;95371.34;;;4.34;100.00
20624;BME280;10471;42.736;23.346;2023-04-07T06:21:38;95374.69;;;4.46;100.00
20624;BME280;10471;42.736;23.346;2023-04-07T06:24:04;95373.94;;;4.34;100.00
20624;BME280;10471;42.736;23.346;2023-04-07T06:26:31;95376.44;;;4.41;100.00
20624;BME280;10471;42.736;23.346;2023-04-07T06:28:57;95375.41;;;4.58;100.00
20624;BME280;10471;42.736;23.346;2023-04-07T06:31:23;95373.19;;;4.66;100.00
20624;BME280;10471;42.736;23.346;2023-04-07T06:33:49;95374.44;;;4.80;100.00
20624;BME280;10471;42.736;23.346;2023-04-07T06:36:14;95374.88;;;4.94;100.00
20624;BME280;10471;42.736;23.346;2023-04-07T06:38:40;95375.09;;;5.09;100.00
20624;BME280;10471;42.736;23.346;2023-04-07T06:41:05;95378.94;;;5.22;100.00
20624;BME280;10471;42.736;23.346;2023-04-07T06:43:32;95381.25;;;5.40;100.00
20624;BME280;10471;42.736;23.346;2023-04-07T06:45:57;95385.34;;;5.53;95.98
20624;BME280;10471;42.736;23.346;2023-04-07T06:48:23;95376.00;;;5.78;96.13
20624;BME280;10471;42.736;23.346;2023-04-07T06:50:48;95381.50;;;6.03;96.66
20624;BME280;10471;42.736;23.346;2023-04-07T06:53:14;95372.88;;;6.07;94.51
20624;BME280;10471;42.736;23.346;2023-04-07T06:55:40;95384.34;;;6.28;94.16
20624;BME280;10471;42.736;23.346;2023-04-07T06:58:05;95369.50;;;6.38;90.67
20624;BME280;10471;42.736;23.346;2023-04-07T07:00:31;95381.47;;;6.55;90.35
20624;BME280;10471;42.736;23.346;2023-04-07T07:02:56;95373.13;;;6.63;88.35
20624;BME280;10471;42.736;23.346;2023-04-07T07:05:22;95370.97;;;6.55;92.23
20624;BME280;10471;42.736;23.346;2023-04-07T07:07:48;95380.00;;;6.69;95.48
20624;BME280;10471;42.736;23.346;2023-04-07T07:10:13;95374.44;;;6.97;91.66
20624;BME280;10471;42.736;23.346;2023-04-07T07:12:38;95380.63;;;7.27;86.97
20624;BME280;10471;42.736;23.346;2023-04-07T07:15:04;95382.94;;;7.19;83.15
20624;BME280;10471;42.736;23.346;2023-04-07T07:17:30;95376.50;;;6.95;82.69
20624;BME280;10471;42.736;23.346;2023-04-07T07:19:56;95375.44;;;6.91;83.18
20624;BME280;10471;42.736;23.346;2023-04-07T07:22:21;95382.38;;;7.12;83.83
20624;BME280;10471;42.736;23.346;2023-04-07T07:24:46;95377.16;;;7.12;75.34
20624;BME280;10471;42.736;23.346;2023-04-07T07:27:12;95383.88;;;7.03;79.61
20624;BME280;10471;42.736;23.346;2023-04-07T07:29:37;95381.31;;;7.13;81.22
20624;BME280;10471;42.736;23.346;2023-04-07T07:32:02;95380.84;;;7.21;80.32
20624;BME280;10471;42.736;23.346;2023-04-07T07:34:28;95383.03;;;7.39;79.79
20624;BME280;10471;42.736;23.346;2023-04-07T07:36:54;95383.78;;;7.29;75.32
20624;BME280;10471;42.736;23.346;2023-04-07T07:39:20;95385.72;;;7.44;74.60
20624;BME280;10471;42.736;23.346;2023-04-07T07:41:45;95387.94;;;7.77;74.71
20624;BME280;10471;42.736;23.346;2023-04-07T07:44:11;95385.94;;;8.08;72.81
20624;BME280;10471;42.736;23.346;2023-04-07T07:46:36;95389.09;;;8.05;71.31
20624;BME280;10471;42.736;23.346;2023-04-07T07:49:01;95387.41;;;7.75;58.04
20624;BME280;10471;42.736;23.346;2023-04-07T07:51:29;95387.47;;;7.94;54.31
20624;BME280;10471;42.736;23.346;2023-04-07T07:53:54;95385.66;;;8.00;50.90
20624;BME280;10471;42.736;23.346;2023-04-07T07:56:20;95384.41;;;8.22;51.22
20624;BME280;10471;42.736;23.346;2023-04-07T07:58:45;95389.66;;;8.22;48.63
20624;BME280;10471;42.736;23.346;2023-04-07T08:01:11;95399.94;;;7.63;47.88
20624;BME280;10471;42.736;23.346;2023-04-07T08:03:37;95395.38;;;7.43;49.86
20624;BME280;10471;42.736;23.346;2023-04-07T08:06:02;95394.91;;;7.46;51.78
20624;BME280;10471;42.736;23.346;2023-04-07T08:08:27;95386.78;;;7.48;50.81
20624;BME280;10471;42.736;23.346;2023-04-07T08:10:53;95393.53;;;7.39;52.12
20624;BME280;10471;42.736;23.346;2023-04-07T08:13:18;95388.59;;;7.52;51.33
20624;BME280;10471;42.736;23.346;2023-04-07T08:15:44;95388.56;;;7.42;50.95
20624;BME280;10471;42.736;23.346;2023-04-07T08:18:09;95398.28;;;7.42;49.66
20624;BME280;10471;42.736;23.346;2023-04-07T08:20:35;95400.94;;;7.52;50.84
20624;BME280;10471;42.736;23.346;2023-04-07T08:23:00;95394.38;;;7.49;48.60
20624;BME280;10471;42.736;23.346;2023-04-07T08:25:27;95392.84;;;7.58;49.36
20624;BME280;10471;42.736;23.346;2023-04-07T08:27:52;95396.25;;;7.59;49.42
20624;BME280;10471;42.736;23.346;2023-04-07T08:30:18;95399.13;;;7.57;49.46
20624;BME280;10471;42.736;23.346;2023-04-07T08:32:45;95388.56;;;7.42;48.06
20624;BME280;10471;42.736;23.346;2023-04-07T08:35:10;95394.69;;;7.63;49.13
20624;BME280;10471;42.736;23.346;2023-04-07T08:37:37;95401.03;;;7.77;48.98
20624;BME280;10471;42.736;23.346;2023-04-07T08:40:03;95391.31;;;7.67;47.88
20624;BME280;10471;42.736;23.346;2023-04-07T08:42:31;95388.63;;;7.57;49.30
20624;BME280;10471;42.736;23.346;2023-04-07T08:45:01;95387.75;;;7.32;48.95
20624;BME280;10471;42.736;23.346;2023-04-07T08:47:29;95392.31;;;7.56;49.38
20624;BME280;10471;42.736;23.346;2023-04-07T08:49:56;95401.53;;;7.64;49.52
20624;BME280;10471;42.736;23.346;2023-04-07T08:52:44;95399.38;;;7.56;48.75
20624;BME280;10471;42.736;23.346;2023-04-07T08:55:11;95401.47;;;7.49;48.16
20624;BME280;10471;42.736;23.346;2023-04-07T08:57:37;95395.31;;;7.80;48.82
20624;BME280;10471;42.736;23.346;2023-04-07T09:00:03;95387.78;;;8.08;48.38
20624;BME280;10471;42.736;23.346;2023-04-07T09:02:33;95391.25;;;8.23;47.44
20624;BME280;10471;42.736;23.346;2023-04-07T09:04:59;95400.72;;;8.39;47.83
20624;BME280;10471;42.736;23.346;2023-04-07T09:07:25;95396.50;;;8.23;47.81
20624;BME280;10471;42.736;23.346;2023-04-07T09:09:51;95391.81;;;8.40;47.66
20624;BME280;10471;42.736;23.346;2023-04-07T09:12:16;95391.78;;;8.15;47.50
20624;BME280;10471;42.736;23.346;2023-04-07T09:14:42;95395.19;;;8.31;47.37
20624;BME280;10471;42.736;23.346;2023-04-07T09:17:07;95402.78;;;8.27;47.73
20624;BME280;10471;42.736;23.346;2023-04-07T09:19:33;95401.78;;;8.43;47.12
20624;BME280;10471;42.736;23.346;2023-04-07T09:21:58;95393.41;;;8.71;48.45
20624;BME280;10471;42.736;23.346;2023-04-07T09:24:26;95397.34;;;8.63;48.10
20624;BME280;10471;42.736;23.346;2023-04-07T09:27:10;95397.06;;;8.60;47.97
20624;BME280;10471;42.736;23.346;2023-04-07T09:29:37;95393.94;;;8.68;47.79
20624;BME280;10471;42.736;23.346;2023-04-07T09:32:02;95392.34;;;8.37;47.44
20624;BME280;10471;42.736;23.346;2023-04-07T09:34:32;95394.72;;;8.68;47.03
20624;BME280;10471;42.736;23.346;2023-04-07T09:36:58;95389.72;;;8.57;47.01
20624;BME280;10471;42.736;23.346;2023-04-07T09:39:24;95398.66;;;8.61;47.36
20624;BME280;10471;42.736;23.346;2023-04-07T09:41:50;95406.50;;;8.36;47.44
20624;BME280;10471;42.736;23.346;2023-04-07T09:44:20;95402.84;;;8.47;48.22
20624;BME280;10471;42.736;23.346;2023-04-07T09:46:56;95404.56;;;8.02;49.74
20624;BME280;10471;42.736;23.346;2023-04-07T09:49:23;95401.75;;;8.33;49.70
20624;BME280;10471;42.736;23.346;2023-04-07T09:51:55;95400.72;;;8.29;49.47
20624;BME280;10471;42.736;23.346;2023-04-07T09:54:35;95397.53;;;8.27;50.29
20624;BME280;10471;42.736;23.346;2023-04-07T09:57:08;95405.72;;;8.46;50.36
20624;BME280;10471;42.736;23.346;2023-04-07T09:59:36;95409.94;;;8.51;51.47
20624;BME280;10471;42.736;23.346;2023-04-07T10:02:02;95413.81;;;8.14;50.92
20624;BME280;10471;42.736;23.346;2023-04-07T10:04:28;95416.66;;;8.08;51.23
20624;BME280;10471;42.736;23.346;2023-04-07T10:06:56;95414.34;;;8.21;51.46
20624;BME280;10471;42.736;23.346;2023-04-07T10:09:23;95420.13;;;8.33;50.79
20624;BME280;10471;42.736;23.346;2023-04-07T10:11:50;95416.50;;;8.49;51.19
20624;BME280;10471;42.736;23.346;2023-04-07T10:14:17;95408.91;;;8.77;51.08
20624;BME280;10471;42.736;23.346;2023-04-07T10:16:43;95397.06;;;8.95;50.37
20624;BME280;10471;42.736;23.346;2023-04-07T10:19:10;95415.47;;;8.85;52.49
20624;BME280;10471;42.736;23.346;2023-04-07T10:21:38;95409.97;;;8.91;51.78
20624;BME280;10471;42.736;23.346;2023-04-07T10:26:51;95403.91;;;8.96;50.77
20624;BME280;10471;42.736;23.346;2023-04-07T10:29:18;95400.25;;;8.92;50.08
20624;BME280;10471;42.736;23.346;2023-04-07T10:31:44;95399.44;;;9.06;50.06
20624;BME280;10471;42.736;23.346;2023-04-07T10:34:10;95399.69;;;9.19;50.61
20624;BME280;10471;42.736;23.346;2023-04-07T10:37:10;95401.22;;;9.50;52.02
20624;BME280;10471;42.736;23.346;2023-04-07T10:39:37;95405.41;;;9.46;50.30
20624;BME280;10471;42.736;23.346;2023-04-07T10:42:03;95416.25;;;9.25;49.72
20624;BME280;10471;42.736;23.346;2023-04-07T10:47:04;95415.22;;;9.11;51.75
20624;BME280;10471;42.736;23.346;2023-04-07T10:49:33;95410.72;;;9.12;52.53
20624;BME280;10471;42.736;23.346;2023-04-07T10:54:38;95408.34;;;9.20;51.83
20624;BME280;10471;42.736;23.346;2023-04-07T10:57:09;95414.16;;;9.07;51.09
20624;BME280;10471;42.736;23.346;2023-04-07T10:59:40;95419.94;;;8.94;50.01
20624;BME280;10471;42.736;23.346;2023-04-07T11:04:40;95419.69;;;9.25;51.57
20624;BME280;10471;42.736;23.346;2023-04-07T11:07:06;95416.53;;;9.13;50.31
20624;BME280;10471;42.736;23.346;2023-04-07T11:09:32;95417.03;;;9.11;49.87
20624;BME280;10471;42.736;23.346;2023-04-07T11:11:57;95415.97;;;9.26;50.27
20624;BME280;10471;42.736;23.346;2023-04-07T11:14:30;95425.47;;;9.13;49.79
20624;BME280;10471;42.736;23.346;2023-04-07T11:16:56;95427.53;;;9.15;48.97
20624;BME280;10471;42.736;23.346;2023-04-07T11:19:22;95419.66;;;9.15;49.67
20624;BME280;10471;42.736;23.346;2023-04-07T11:21:47;95418.09;;;9.24;49.22
20624;BME280;10471;42.736;23.346;2023-04-07T11:26:57;95416.50;;;9.28;49.88
20624;BME280;10471;42.736;23.346;2023-04-07T11:29:30;95430.19;;;8.96;50.98
20624;BME280;10471;42.736;23.346;2023-04-07T11:31:57;95428.09;;;8.98;50.09
20624;BME280;10471;42.736;23.346;2023-04-07T11:34:28;95431.25;;;9.14;50.20
20624;BME280;10471;42.736;23.346;2023-04-07T11:36:54;95424.91;;;9.40;51.18
20624;BME280;10471;42.736;23.346;2023-04-07T11:39:24;95422.50;;;9.44;51.00
20624;BME280;10471;42.736;23.346;2023-04-07T11:41:52;95424.91;;;9.40;49.65
20624;BME280;10471;42.736;23.346;2023-04-07T11:44:18;95431.72;;;9.31;50.41
20624;BME280;10471;42.736;23.346;2023-04-07T11:46:54;95436.19;;;9.46;49.13
20624;BME280;10471;42.736;23.346;2023-04-07T11:49:21;95435.91;;;9.47;49.06
20624;BME280;10471;42.736;23.346;2023-04-07T11:51:47;95425.63;;;9.61;49.42
20624;BME280;10471;42.736;23.346;2023-04-07T11:54:13;95422.16;;;9.80;50.03
20624;BME280;10471;42.736;23.346;2023-04-07T11:56:41;95423.53;;;9.63;50.88
20624;BME280;10471;42.736;23.346;2023-04-07T11:59:07;95426.19;;;9.48;50.40
20624;BME280;10471;42.736;23.346;2023-04-07T12:01:39;95427.47;;;9.65;50.11
20624;BME280;10471;42.736;23.346;2023-04-07T12:04:12;95424.59;;;9.62;49.67
20624;BME280;10471;42.736;23.346;2023-04-07T12:06:38;95424.03;;;9.70;49.66
20624;BME280;10471;42.736;23.346;2023-04-07T12:09:06;95416.69;;;9.62;50.68
20624;BME280;10471;42.736;23.346;2023-04-07T12:11:32;95418.97;;;9.83;50.48
20624;BME280;10471;42.736;23.346;2023-04-07T12:13:58;95422.75;;;9.57;49.02
20624;BME280;10471;42.736;23.346;2023-04-07T12:16:23;95419.31;;;9.62;49.67
20624;BME280;10471;42.736;23.346;2023-04-07T12:18:49;95431.66;;;9.76;49.70
20624;BME280;10471;42.736;23.346;2023-04-07T12:21:18;95421.63;;;9.98;48.76
20624;BME280;10471;42.736;23.346;2023-04-07T12:23:45;95407.28;;;10.19;49.18
20624;BME280;10471;42.736;23.346;2023-04-07T12:26:11;95425.81;;;9.84;48.47
20624;BME280;10471;42.736;23.346;2023-04-07T12:28:37;95426.88;;;9.98;48.99
20624;BME280;10471;42.736;23.346;2023-04-07T12:31:03;95420.84;;;9.77;48.78
20624;BME280;10471;42.736;23.346;2023-04-07T12:33:28;95425.13;;;9.59;49.09
20624;BME280;10471;42.736;23.346;2023-04-07T12:35:54;95418.56;;;9.56;49.02
20624;BME280;10471;42.736;23.346;2023-04-07T12:38:19;95415.25;;;10.04;49.03
20624;BME280;10471;42.736;23.346;2023-04-07T12:40:45;95415.19;;;10.19;48.80
20624;BME280;10471;42.736;23.346;2023-04-07T12:43:11;95423.00;;;10.34;48.21
20624;BME280;10471;42.736;23.346;2023-04-07T12:45:36;95430.47;;;10.17;48.46
20624;BME280;10471;42.736;23.346;2023-04-07T12:48:02;95438.44;;;9.92;49.08
20624;BME280;10471;42.736;23.346;2023-04-07T12:50:28;95414.78;;;9.87;49.04
20624;BME280;10471;42.736;23.346;2023-04-07T12:52:54;95426.13;;;9.73;49.02
20624;BME280;10471;42.736;23.346;2023-04-07T12:55:20;95421.69;;;9.58;49.35
20624;BME280;10471;42.736;23.346;2023-04-07T12:57:46;95425.41;;;9.47;50.24
20624;BME280;10471;42.736;23.346;2023-04-07T13:00:12;95426.72;;;9.45;49.29
20624;BME280;10471;42.736;23.346;2023-04-07T13:02:38;95421.97;;;9.52;49.50
20624;BME280;10471;42.736;23.346;2023-04-07T13:05:03;95433.03;;;9.49;50.01
20624;BME280;10471;42.736;23.346;2023-04-07T13:07:30;95431.72;;;9.51;49.78
20624;BME280;10471;42.736;23.346;2023-04-07T13:09:55;95424.38;;;9.43;51.07